sensor_id;sensor_type;location;lat;lon;timestamp;pressure;altitude;pressure_sealevel;temperature;humidity
48015;BME280;33780;51.034;7.120;2023-02-18T00:00:55;101489.91;;;12.85;74.65
48015;BME280;33780;51.034;7.120;2023-02-18T00:03:28;101497.97;;;12.85;74.68
48015;BME280;33780;51.034;7.120;2023-02-18T00:05:53;101488.09;;;12.85;74.65
48015;BME280;33780;51.034;7.120;2023-02-18T00:08:19;101487.22;;;12.85;74.74
48015;BME280;33780;51.034;7.120;2023-02-18T00:10:45;101492.59;;;12.85;74.21
48015;BME280;33780;51.034;7.120;2023-02-18T00:13:10;101484.69;;;12.83;74.70
48015;BME280;33780;51.034;7.120;2023-02-18T00:15:36;101495.41;;;12.83;74.98
48015;BME280;33780;51.034;7.120;2023-02-18T00:18:02;101490.19;;;12.82;74.92
48015;BME280;33780;51.034;7.120;2023-02-18T00:20:27;101487.75;;;12.79;74.98
48015;BME280;33780;51.034;7.120;2023-02-18T00:22:53;101488.00;;;12.76;75.55
48015;BME280;33780;51.034;7.120;2023-02-18T00:25:18;101489.09;;;12.73;75.49
48015;BME280;33780;51.034;7.120;2023-02-18T00:27:43;101483.72;;;12.73;75.47
48015;BME280;33780;51.034;7.120;2023-02-18T00:30:09;101482.75;;;12.74;75.51
48015;BME280;33780;51.034;7.120;2023-02-18T00:32:34;101490.78;;;12.74;75.71
48015;BME280;33780;51.034;7.120;2023-02-18T00:35:00;101481.88;;;12.74;75.32
48015;BME280;33780;51.034;7.120;2023-02-18T00:37:25;101478.34;;;12.73;75.40
48015;BME280;33780;51.034;7.120;2023-02-18T00:39:50;101463.22;;;12.72;75.84
48015;BME280;33780;51.034;7.120;2023-02-18T00:42:16;101466.88;;;12.71;75.22
48015;BME280;33780;51.034;7.120;2023-02-18T00:44:41;101458.81;;;12.71;75.62
48015;BME280;33780;51.034;7.120;2023-02-18T00:47:06;101447.38;;;12.69;75.88
48015;BME280;33780;51.034;7.120;2023-02-18T00:49:32;101451.75;;;12.70;75.53
48015;BME280;33780;51.034;7.120;2023-02-18T00:51:57;101451.03;;;12.68;75.77
48015;BME280;33780;51.034;7.120;2023-02-18T00:54:22;101448.22;;;12.69;75.94
48015;BME280;33780;51.034;7.120;2023-02-18T00:56:48;101442.84;;;12.69;75.62
48015;BME280;33780;51.034;7.120;2023-02-18T00:59:13;101448.22;;;12.69;75.93
48015;BME280;33780;51.034;7.120;2023-02-18T01:01:38;101442.97;;;12.68;76.01
48015;BME280;33780;51.034;7.120;2023-02-18T01:04:04;101443.97;;;12.67;75.89
48015;BME280;33780;51.034;7.120;2023-02-18T01:06:29;101448.47;;;12.66;76.07
48015;BME280;33780;51.034;7.120;2023-02-18T01:08:54;101448.47;;;12.66;76.10
48015;BME280;33780;51.034;7.120;2023-02-18T01:11:20;101436.88;;;12.66;76.08
48015;BME280;33780;51.034;7.120;2023-02-18T01:13:45;101433.34;;;12.65;75.72
48015;BME280;33780;51.034;7.120;2023-02-18T01:16:10;101427.97;;;12.65;76.03
48015;BME280;33780;51.034;7.120;2023-02-18T01:18:37;101436.88;;;12.66;76.19
48015;BME280;33780;51.034;7.120;2023-02-18T01:21:02;101438.72;;;12.65;76.12
48015;BME280;33780;51.034;7.120;2023-02-18T01:23:29;101441.41;;;12.65;75.75
48015;BME280;33780;51.034;7.120;2023-02-18T01:25:56;101439.69;;;12.64;76.10
48015;BME280;33780;51.034;7.120;2023-02-18T01:28:22;101426.41;;;12.63;75.99
48015;BME280;33780;51.034;7.120;2023-02-18T01:30:50;101427.50;;;12.60;76.46
48015;BME280;33780;51.034;7.120;2023-02-18T01:33:15;101428.38;;;12.61;76.08
48015;BME280;33780;51.034;7.120;2023-02-18T01:35:40;101416.63;;;12.62;76.36
48015;BME280;33780;51.034;7.120;2023-02-18T01:38:06;101422.88;;;12.62;76.43
48015;BME280;33780;51.034;7.120;2023-02-18T01:40:32;101411.41;;;12.60;76.34
48015;BME280;33780;51.034;7.120;2023-02-18T01:42:57;101418.72;;;12.58;76.04
48015;BME280;33780;51.034;7.120;2023-02-18T01:48:08;101419.59;;;12.59;75.91
48015;BME280;33780;51.034;7.120;2023-02-18T01:50:37;101421.28;;;12.60;75.97
48015;BME280;33780;51.034;7.120;2023-02-18T01:53:03;101414.09;;;12.60;75.87
48015;BME280;33780;51.034;7.120;2023-02-18T01:55:29;101413.22;;;12.60;76.07
48015;BME280;33780;51.034;7.120;2023-02-18T01:57:55;101415.06;;;12.59;75.80
48015;BME280;33780;51.034;7.120;2023-02-18T02:00:20;101411.41;;;12.60;75.86
48015;BME280;33780;51.034;7.120;2023-02-18T02:02:47;101400.66;;;12.60;75.96
48015;BME280;33780;51.034;7.120;2023-02-18T02:05:13;101394.44;;;12.60;76.27
48015;BME280;33780;51.034;7.120;2023-02-18T02:07:40;101389.06;;;12.60;76.07
48015;BME280;33780;51.034;7.120;2023-02-18T02:10:08;101390.91;;;12.59;75.83
48015;BME280;33780;51.034;7.120;2023-02-18T02:15:27;101374.78;;;12.59;76.15
48015;BME280;33780;51.034;7.120;2023-02-18T02:21:48;101375.03;;;12.56;75.94
48015;BME280;33780;51.034;7.120;2023-02-18T02:24:45;101369.78;;;12.55;75.97
48015;BME280;33780;51.034;7.120;2023-02-18T02:27:39;101371.63;;;12.54;76.27
48015;BME280;33780;51.034;7.120;2023-02-18T02:33:05;101362.72;;;12.54;76.07
48015;BME280;33780;51.034;7.120;2023-02-18T02:35:51;101369.91;;;12.53;76.23
48015;BME280;33780;51.034;7.120;2023-02-18T02:43:35;101358.19;;;12.54;76.22
48015;BME280;33780;51.034;7.120;2023-02-18T02:46:10;101351.13;;;12.53;76.65
48015;BME280;33780;51.034;7.120;2023-02-18T02:48:53;101341.38;;;12.52;77.17
48015;BME280;33780;51.034;7.120;2023-02-18T02:51:37;101346.00;;;12.50;76.95
48015;BME280;33780;51.034;7.120;2023-02-18T02:54:22;101338.22;;;12.47;77.58
48015;BME280;33780;51.034;7.120;2023-02-18T02:56:48;101330.16;;;12.47;76.80
48015;BME280;33780;51.034;7.120;2023-02-18T02:59:18;101343.59;;;12.47;76.96
48015;BME280;33780;51.034;7.120;2023-02-18T03:07:10;101332.00;;;12.47;77.29
48015;BME280;33780;51.034;7.120;2023-02-18T03:09:46;101321.41;;;12.45;77.60
48015;BME280;33780;51.034;7.120;2023-02-18T03:12:27;101321.53;;;12.44;77.44
48015;BME280;33780;51.034;7.120;2023-02-18T03:15:19;101318.97;;;12.42;77.44
48015;BME280;33780;51.034;7.120;2023-02-18T03:18:07;101321.53;;;12.44;77.35
48015;BME280;33780;51.034;7.120;2023-02-18T03:20:40;101303.59;;;12.44;77.44
48015;BME280;33780;51.034;7.120;2023-02-18T03:23:10;101306.13;;;12.46;77.37
48015;BME280;33780;51.034;7.120;2023-02-18T03:25:39;101312.22;;;12.48;77.70
48015;BME280;33780;51.034;7.120;2023-02-18T03:28:12;101310.41;;;12.48;77.89
48015;BME280;33780;51.034;7.120;2023-02-18T03:30:55;101309.41;;;12.49;77.59
48015;BME280;33780;51.034;7.120;2023-02-18T03:33:27;101304.03;;;12.49;77.60
48015;BME280;33780;51.034;7.120;2023-02-18T03:35:55;101296.84;;;12.50;77.74
48015;BME280;33780;51.034;7.120;2023-02-18T03:38:43;101302.22;;;12.50;77.81
48015;BME280;33780;51.034;7.120;2023-02-18T03:41:09;101307.44;;;12.51;77.75
48015;BME280;33780;51.034;7.120;2023-02-18T03:43:35;101300.38;;;12.50;77.92
48015;BME280;33780;51.034;7.120;2023-02-18T03:46:01;101306.59;;;12.51;78.24
48015;BME280;33780;51.034;7.120;2023-02-18T03:48:26;101308.56;;;12.49;77.98
48015;BME280;33780;51.034;7.120;2023-02-18T03:50:52;101302.34;;;12.48;78.82
48015;BME280;33780;51.034;7.120;2023-02-18T03:53:17;101310.53;;;12.47;78.47
48015;BME280;33780;51.034;7.120;2023-02-18T03:55:42;101300.78;;;12.46;78.61
48015;BME280;33780;51.034;7.120;2023-02-18T03:58:08;101294.56;;;12.45;78.60
48015;BME280;33780;51.034;7.120;2023-02-18T04:00:33;101300.06;;;12.44;78.96
48015;BME280;33780;51.034;7.120;2023-02-18T04:02:58;101290.28;;;12.43;78.97
48015;BME280;33780;51.034;7.120;2023-02-18T04:05:24;101278.84;;;12.40;79.12
48015;BME280;33780;51.034;7.120;2023-02-18T04:07:49;101282.38;;;12.41;79.35
48015;BME280;33780;51.034;7.120;2023-02-18T04:10:14;101277.13;;;12.39;79.51
48015;BME280;33780;51.034;7.120;2023-02-18T04:12:40;101272.63;;;12.40;79.75
48015;BME280;33780;51.034;7.120;2023-02-18T04:15:05;101263.81;;;12.38;79.43
48015;BME280;33780;51.034;7.120;2023-02-18T04:17:32;101271.88;;;12.38;79.61
48015;BME280;33780;51.034;7.120;2023-02-18T04:19:57;101258.44;;;12.38;80.02
48015;BME280;33780;51.034;7.120;2023-02-18T04:22:22;101263.09;;;12.36;80.20
48015;BME280;33780;51.034;7.120;2023-02-18T04:24:47;101258.84;;;12.33;80.26
48015;BME280;33780;51.034;7.120;2023-02-18T04:27:13;101244.72;;;12.31;80.11
48015;BME280;33780;51.034;7.120;2023-02-18T04:29:38;101255.44;;;12.31;80.55
48015;BME280;33780;51.034;7.120;2023-02-18T04:32:03;101245.69;;;12.30;80.58
48015;BME280;33780;51.034;7.120;2023-02-18T04:34:29;101245.81;;;12.29;80.64
48015;BME280;33780;51.034;7.120;2023-02-18T04:36:54;101254.00;;;12.27;80.83
48015;BME280;33780;51.034;7.120;2023-02-18T04:39:20;101245.09;;;12.27;81.05
48015;BME280;33780;51.034;7.120;2023-02-18T04:41:45;101243.53;;;12.24;80.78
48015;BME280;33780;51.034;7.120;2023-02-18T04:44:10;101241.84;;;12.23;80.97
48015;BME280;33780;51.034;7.120;2023-02-18T04:46:36;101246.50;;;12.21;81.22
48015;BME280;33780;51.034;7.120;2023-02-18T04:49:01;101236.72;;;12.20;81.00
48015;BME280;33780;51.034;7.120;2023-02-18T04:51:26;101234.16;;;12.19;81.87
48015;BME280;33780;51.034;7.120;2023-02-18T04:53:52;101239.53;;;12.19;81.55
48015;BME280;33780;51.034;7.120;2023-02-18T04:56:17;101230.75;;;12.17;81.43
48015;BME280;33780;51.034;7.120;2023-02-18T04:58:43;101234.56;;;12.14;81.44
48015;BME280;33780;51.034;7.120;2023-02-18T05:01:09;101226.50;;;12.14;81.93
48015;BME280;33780;51.034;7.120;2023-02-18T05:03:34;101228.34;;;12.14;81.94
48015;BME280;33780;51.034;7.120;2023-02-18T05:05:59;101226.63;;;12.13;82.05
48015;BME280;33780;51.034;7.120;2023-02-18T05:08:25;101232.00;;;12.13;81.98
48015;BME280;33780;51.034;7.120;2023-02-18T05:10:50;101225.78;;;12.12;81.71
48015;BME280;33780;51.034;7.120;2023-02-18T05:13:15;101233.84;;;12.12;81.86
48015;BME280;33780;51.034;7.120;2023-02-18T05:15:41;101232.25;;;12.09;81.91
48015;BME280;33780;51.034;7.120;2023-02-18T05:18:06;101218.13;;;12.07;82.12
48015;BME280;33780;51.034;7.120;2023-02-18T05:20:32;101218.97;;;12.08;82.19
48015;BME280;33780;51.034;7.120;2023-02-18T05:22:57;101215.56;;;12.06;82.30
48015;BME280;33780;51.034;7.120;2023-02-18T05:25:23;101205.97;;;12.03;82.13
48015;BME280;33780;51.034;7.120;2023-02-18T05:27:48;101208.75;;;12.02;82.12
48015;BME280;33780;51.034;7.120;2023-02-18T05:30:14;101207.91;;;12.01;82.51
48015;BME280;33780;51.034;7.120;2023-02-18T05:32:40;101209.72;;;12.01;82.17
48015;BME280;33780;51.034;7.120;2023-02-18T05:35:06;101203.38;;;12.02;82.29
48015;BME280;33780;51.034;7.120;2023-02-18T05:37:31;101199.97;;;12.00;82.31
48015;BME280;33780;51.034;7.120;2023-02-18T05:39:56;101209.72;;;12.01;82.16
48015;BME280;33780;51.034;7.120;2023-02-18T05:42:22;101204.50;;;11.99;82.77
48015;BME280;33780;51.034;7.120;2023-02-18T05:44:47;101192.91;;;11.99;82.45
48015;BME280;33780;51.034;7.120;2023-02-18T05:47:13;101188.53;;;11.98;82.31
48015;BME280;33780;51.034;7.120;2023-02-18T05:49:40;101188.53;;;11.98;82.53
48015;BME280;33780;51.034;7.120;2023-02-18T05:52:06;101184.00;;;11.98;82.73
48015;BME280;33780;51.034;7.120;2023-02-18T05:54:33;101181.47;;;11.97;83.07
48015;BME280;33780;51.034;7.120;2023-02-18T05:56:59;101180.75;;;11.95;83.00
48015;BME280;33780;51.034;7.120;2023-02-18T05:59:24;101168.31;;;11.94;82.83
48015;BME280;33780;51.034;7.120;2023-02-18T06:01:50;101163.94;;;11.93;82.96
48015;BME280;33780;51.034;7.120;2023-02-18T06:04:16;101166.75;;;11.91;83.00
48015;BME280;33780;51.034;7.120;2023-02-18T06:06:41;101173.94;;;11.91;83.23
48015;BME280;33780;51.034;7.120;2023-02-18T06:09:08;101158.84;;;11.90;83.21
48015;BME280;33780;51.034;7.120;2023-02-18T06:11:34;101148.97;;;11.90;83.32
48015;BME280;33780;51.034;7.120;2023-02-18T06:13:59;101157.00;;;11.90;83.38
48015;BME280;33780;51.034;7.120;2023-02-18T06:16:25;101155.44;;;11.88;83.33
48015;BME280;33780;51.034;7.120;2023-02-18T06:18:51;101152.75;;;11.88;83.48
48015;BME280;33780;51.034;7.120;2023-02-18T06:21:16;101156.41;;;11.87;83.24
48015;BME280;33780;51.034;7.120;2023-02-18T06:23:41;101157.28;;;11.87;83.32
48015;BME280;33780;51.034;7.120;2023-02-18T06:26:07;101155.56;;;11.86;83.40
48015;BME280;33780;51.034;7.120;2023-02-18T06:28:32;101156.56;;;11.85;83.77
48015;BME280;33780;51.034;7.120;2023-02-18T06:31:00;101156.78;;;11.82;83.32
48015;BME280;33780;51.034;7.120;2023-02-18T06:33:26;101154.09;;;11.82;83.24
48015;BME280;33780;51.034;7.120;2023-02-18T06:35:57;101156.78;;;11.82;83.33
48015;BME280;33780;51.034;7.120;2023-02-18T06:38:22;101161.16;;;11.83;83.59
48015;BME280;33780;51.034;7.120;2023-02-18T06:40:53;101160.44;;;11.81;83.81
48015;BME280;33780;51.034;7.120;2023-02-18T06:43:19;101158.47;;;11.83;83.06
48015;BME280;33780;51.034;7.120;2023-02-18T06:45:45;101142.53;;;11.82;83.16
48015;BME280;33780;51.034;7.120;2023-02-18T06:48:11;101146.91;;;11.83;82.92
48015;BME280;33780;51.034;7.120;2023-02-18T06:50:46;101158.63;;;11.82;83.03
48015;BME280;33780;51.034;7.120;2023-02-18T06:53:32;101152.41;;;11.81;83.31
48015;BME280;33780;51.034;7.120;2023-02-18T06:56:05;101143.63;;;11.79;82.99
48015;BME280;33780;51.034;7.120;2023-02-18T06:58:36;101132.06;;;11.78;82.56
48015;BME280;33780;51.034;7.120;2023-02-18T07:01:05;101133.75;;;11.79;82.97
48015;BME280;33780;51.034;7.120;2023-02-18T07:03:36;101140.97;;;11.79;82.79
48015;BME280;33780;51.034;7.120;2023-02-18T07:06:01;101140.69;;;11.82;82.66
48015;BME280;33780;51.034;7.120;2023-02-18T07:08:26;101139.84;;;11.82;82.55
48015;BME280;33780;51.034;7.120;2023-02-18T07:10:58;101135.34;;;11.82;82.83
48015;BME280;33780;51.034;7.120;2023-02-18T07:13:23;101152.28;;;11.83;82.52
48015;BME280;33780;51.034;7.120;2023-02-18T07:15:48;101151.28;;;11.84;82.17
48015;BME280;33780;51.034;7.120;2023-02-18T07:18:17;101142.41;;;11.83;82.14
48015;BME280;33780;51.034;7.120;2023-02-18T07:20:45;101158.25;;;11.86;82.38
48015;BME280;33780;51.034;7.120;2023-02-18T07:23:11;101152.03;;;11.86;82.24
48015;BME280;33780;51.034;7.120;2023-02-18T07:25:39;101166.16;;;11.88;82.19
48015;BME280;33780;51.034;7.120;2023-02-18T07:28:05;101166.16;;;11.88;81.65
48015;BME280;33780;51.034;7.120;2023-02-18T07:30:46;101165.19;;;11.89;81.32
48015;BME280;33780;51.034;7.120;2023-02-18T07:33:14;101169.56;;;11.90;81.29
48015;BME280;33780;51.034;7.120;2023-02-18T07:35:42;101162.25;;;11.92;80.95
48015;BME280;33780;51.034;7.120;2023-02-18T07:38:20;101167.59;;;11.92;81.04
48015;BME280;33780;51.034;7.120;2023-02-18T07:40:51;101171.13;;;11.92;80.52
48015;BME280;33780;51.034;7.120;2023-02-18T07:43:17;101174.53;;;11.94;80.97
48015;BME280;33780;51.034;7.120;2023-02-18T07:45:51;101167.22;;;11.96;80.55
48015;BME280;33780;51.034;7.120;2023-02-18T07:48:19;101164.53;;;11.96;80.71
48015;BME280;33780;51.034;7.120;2023-02-18T07:50:57;101169.63;;;11.99;80.53
48015;BME280;33780;51.034;7.120;2023-02-18T07:53:31;101166.09;;;11.99;80.05
48015;BME280;33780;51.034;7.120;2023-02-18T07:56:01;101177.66;;;11.99;80.26
48015;BME280;33780;51.034;7.120;2023-02-18T07:58:31;101162.44;;;12.00;79.86
48015;BME280;33780;51.034;7.120;2023-02-18T08:00:57;101161.56;;;11.99;79.08
48015;BME280;33780;51.034;7.120;2023-02-18T08:03:28;101165.97;;;12.00;79.46
48015;BME280;33780;51.034;7.120;2023-02-18T08:05:54;101178.38;;;12.01;79.34
48015;BME280;33780;51.034;7.120;2023-02-18T08:08:22;101185.44;;;12.02;78.68
48015;BME280;33780;51.034;7.120;2023-02-18T08:10:48;101193.63;;;12.01;78.50
48015;BME280;33780;51.034;7.120;2023-02-18T08:13:14;101198.00;;;12.02;78.57
48015;BME280;33780;51.034;7.120;2023-02-18T08:15:39;101198.88;;;12.02;78.35
48015;BME280;33780;51.034;7.120;2023-02-18T08:18:06;101215.94;;;12.01;77.82
48015;BME280;33780;51.034;7.120;2023-02-18T08:20:35;101211.56;;;12.00;77.93
48015;BME280;33780;51.034;7.120;2023-02-18T08:23:01;101207.78;;;12.03;77.27
48015;BME280;33780;51.034;7.120;2023-02-18T08:25:34;101223.28;;;11.99;77.36
48015;BME280;33780;51.034;7.120;2023-02-18T08:27:59;101240.34;;;11.98;77.57
48015;BME280;33780;51.034;7.120;2023-02-18T08:30:25;101237.06;;;11.95;76.60
48015;BME280;33780;51.034;7.120;2023-02-18T08:32:51;101224.66;;;11.94;75.99
48015;BME280;33780;51.034;7.120;2023-02-18T08:35:19;101231.13;;;11.91;75.93
48015;BME280;33780;51.034;7.120;2023-02-18T08:37:45;101227.72;;;11.89;75.89
48015;BME280;33780;51.034;7.120;2023-02-18T08:40:11;101234.78;;;11.90;75.78
48015;BME280;33780;51.034;7.120;2023-02-18T08:42:46;101232.22;;;11.89;75.85
48015;BME280;33780;51.034;7.120;2023-02-18T08:45:14;101240.28;;;11.89;75.94
48015;BME280;33780;51.034;7.120;2023-02-18T08:47:42;101245.63;;;11.89;75.54
48015;BME280;33780;51.034;7.120;2023-02-18T08:50:12;101240.28;;;11.89;74.97
48015;BME280;33780;51.034;7.120;2023-02-18T08:59:24;101255.03;;;11.83;75.05
48015;BME280;33780;51.034;7.120;2023-02-18T09:01:52;101252.72;;;11.78;74.63
48015;BME280;33780;51.034;7.120;2023-02-18T09:04:18;101250.16;;;11.77;75.40
48015;BME280;33780;51.034;7.120;2023-02-18T09:06:45;101253.94;;;11.74;75.33
48015;BME280;33780;51.034;7.120;2023-02-18T09:09:11;101268.91;;;11.77;75.55
48015;BME280;33780;51.034;7.120;2023-02-18T09:11:36;101245.63;;;11.77;75.68
48015;BME280;33780;51.034;7.120;2023-02-18T09:14:01;101234.81;;;11.79;75.73
48015;BME280;33780;51.034;7.120;2023-02-18T09:16:30;101231.03;;;11.82;76.04
48015;BME280;33780;51.034;7.120;2023-02-18T09:18:56;101228.22;;;11.83;75.70
48015;BME280;33780;51.034;7.120;2023-02-18T09:21:25;101227.22;;;11.84;75.67
48015;BME280;33780;51.034;7.120;2023-02-18T09:23:54;101230.03;;;11.83;75.90
48015;BME280;33780;51.034;7.120;2023-02-18T09:26:29;101230.75;;;11.85;75.55
48015;BME280;33780;51.034;7.120;2023-02-18T09:28:55;101223.09;;;11.80;75.20
48015;BME280;33780;51.034;7.120;2023-02-18T09:31:23;101234.81;;;11.79;75.08
48015;BME280;33780;51.034;7.120;2023-02-18T09:33:53;101225.16;;;11.76;75.09
48015;BME280;33780;51.034;7.120;2023-02-18T09:36:18;101224.19;;;11.77;75.03
48015;BME280;33780;51.034;7.120;2023-02-18T09:38:45;101222.34;;;11.78;74.82
48015;BME280;33780;51.034;7.120;2023-02-18T09:43:47;101220.56;;;11.78;74.81
48015;BME280;33780;51.034;7.120;2023-02-18T09:46:23;101206.25;;;11.78;74.29
48015;BME280;33780;51.034;7.120;2023-02-18T09:48:50;101219.56;;;11.79;74.33
48015;BME280;33780;51.034;7.120;2023-02-18T09:51:19;101199.94;;;11.79;74.23
48015;BME280;33780;51.034;7.120;2023-02-18T09:53:45;101196.41;;;11.78;73.80
48015;BME280;33780;51.034;7.120;2023-02-18T09:56:15;101201.78;;;11.78;74.11
48015;BME280;33780;51.034;7.120;2023-02-18T09:58:46;101190.94;;;11.80;73.73
48015;BME280;33780;51.034;7.120;2023-02-18T10:03:44;101188.97;;;11.82;73.60
48015;BME280;33780;51.034;7.120;2023-02-18T10:06:15;101189.94;;;11.81;73.70
48015;BME280;33780;51.034;7.120;2023-02-18T10:08:44;101188.25;;;11.80;74.06
48015;BME280;33780;51.034;7.120;2023-02-18T10:11:13;101192.63;;;11.81;73.92
48015;BME280;33780;51.034;7.120;2023-02-18T10:13:44;101190.78;;;11.82;74.06
48015;BME280;33780;51.034;7.120;2023-02-18T10:16:15;101181.91;;;11.81;73.86
48015;BME280;33780;51.034;7.120;2023-02-18T10:18:45;101187.97;;;11.83;73.47
48015;BME280;33780;51.034;7.120;2023-02-18T10:21:17;101193.22;;;11.85;73.64
48015;BME280;33780;51.034;7.120;2023-02-18T10:24:16;101178.38;;;11.80;73.42
48015;BME280;33780;51.034;7.120;2023-02-18T10:26:43;101174.69;;;11.82;73.88
48015;BME280;33780;51.034;7.120;2023-02-18T10:29:15;101179.44;;;11.78;73.79
48015;BME280;33780;51.034;7.120;2023-02-18T10:34:48;101186.78;;;11.76;74.05
48015;BME280;33780;51.034;7.120;2023-02-18T10:42:52;101175.47;;;11.72;74.57
48015;BME280;33780;51.034;7.120;2023-02-18T10:45:37;101171.78;;;11.73;74.43
48015;BME280;33780;51.034;7.120;2023-02-18T10:48:14;101178.84;;;11.74;74.14
48015;BME280;33780;51.034;7.120;2023-02-18T10:50:48;101186.91;;;11.74;74.07
48015;BME280;33780;51.034;7.120;2023-02-18T10:53:33;101200.44;;;11.73;74.30
48015;BME280;33780;51.034;7.120;2023-02-18T10:55:59;101192.41;;;11.73;74.46
48015;BME280;33780;51.034;7.120;2023-02-18T10:58:35;101199.31;;;11.75;75.00
48015;BME280;33780;51.034;7.120;2023-02-18T11:01:17;101203.13;;;11.73;75.16
48015;BME280;33780;51.034;7.120;2023-02-18T11:03:51;101214.81;;;11.72;75.25
48015;BME280;33780;51.034;7.120;2023-02-18T11:06:31;101208.63;;;11.71;75.39
48015;BME280;33780;51.034;7.120;2023-02-18T11:08:58;101220.31;;;11.70;75.60
48015;BME280;33780;51.034;7.120;2023-02-18T11:11:31;101213.38;;;11.68;76.01
48015;BME280;33780;51.034;7.120;2023-02-18T11:14:02;101221.44;;;11.68;76.03
48015;BME280;33780;51.034;7.120;2023-02-18T11:16:40;101210.78;;;11.66;76.23
48015;BME280;33780;51.034;7.120;2023-02-18T11:22:35;101212.63;;;11.66;76.24
48015;BME280;33780;51.034;7.120;2023-02-18T11:25:22;101210.06;;;11.64;76.53
48015;BME280;33780;51.034;7.120;2023-02-18T11:27:51;101207.25;;;11.66;76.41
48015;BME280;33780;51.034;7.120;2023-02-18T11:30:23;101202.75;;;11.66;76.81
48015;BME280;33780;51.034;7.120;2023-02-18T11:32:53;101204.59;;;11.66;77.01
48015;BME280;33780;51.034;7.120;2023-02-18T11:35:26;101206.41;;;11.65;76.85
48015;BME280;33780;51.034;7.120;2023-02-18T11:37:53;101205.56;;;11.65;77.22
48015;BME280;33780;51.034;7.120;2023-02-18T11:40:29;101209.09;;;11.65;77.49
48015;BME280;33780;51.034;7.120;2023-02-18T11:43:11;101209.84;;;11.67;77.43
48015;BME280;33780;51.034;7.120;2023-02-18T11:45:37;101203.50;;;11.68;77.73
48015;BME280;33780;51.034;7.120;2023-02-18T11:48:15;101205.44;;;11.66;77.90
48015;BME280;33780;51.034;7.120;2023-02-18T11:50:42;101201.06;;;11.65;78.37
48015;BME280;33780;51.034;7.120;2023-02-18T11:53:28;101197.53;;;11.65;78.06
48015;BME280;33780;51.034;7.120;2023-02-18T11:55:56;101204.72;;;11.64;78.65
48015;BME280;33780;51.034;7.120;2023-02-18T11:58:22;101205.09;;;11.60;78.64
48015;BME280;33780;51.034;7.120;2023-02-18T12:00:50;101202.69;;;11.57;78.69
48015;BME280;33780;51.034;7.120;2023-02-18T12:03:29;101213.53;;;11.55;78.98
48015;BME280;33780;51.034;7.120;2023-02-18T12:06:02;101206.47;;;11.54;79.34
48015;BME280;33780;51.034;7.120;2023-02-18T12:08:32;101203.78;;;11.54;79.55
48015;BME280;33780;51.034;7.120;2023-02-18T12:11:06;101192.94;;;11.56;79.80
48015;BME280;33780;51.034;7.120;2023-02-18T12:13:35;101184.31;;;11.52;79.50
48015;BME280;33780;51.034;7.120;2023-02-18T12:21:22;101194.31;;;11.50;79.67
48015;BME280;33780;51.034;7.120;2023-02-18T12:30:24;101193.56;;;11.48;80.26
48015;BME280;33780;51.034;7.120;2023-02-18T12:33:18;101182.09;;;11.46;80.06
48015;BME280;33780;51.034;7.120;2023-02-18T12:36:03;101188.19;;;11.48;80.21
48015;BME280;33780;51.034;7.120;2023-02-18T12:44:23;101181.88;;;11.49;80.88
48015;BME280;33780;51.034;7.120;2023-02-18T12:53:04;101188.31;;;11.46;80.73
48015;BME280;33780;51.034;7.120;2023-02-18T12:55:50;101181.00;;;11.48;81.05
48015;BME280;33780;51.034;7.120;2023-02-18T12:58:35;101181.88;;;11.49;80.95
48015;BME280;33780;51.034;7.120;2023-02-18T13:01:27;101183.69;;;11.48;81.42
48015;BME280;33780;51.034;7.120;2023-02-18T13:07:04;101190.03;;;11.47;81.11
48015;BME280;33780;51.034;7.120;2023-02-18T13:09:44;101196.22;;;11.48;81.33
48015;BME280;33780;51.034;7.120;2023-02-18T13:12:29;101185.50;;;11.48;81.03
48015;BME280;33780;51.034;7.120;2023-02-18T13:15:20;101189.03;;;11.48;81.29
48015;BME280;33780;51.034;7.120;2023-02-18T13:17:48;101188.19;;;11.48;81.46
48015;BME280;33780;51.034;7.120;2023-02-18T13:20:47;101188.56;;;11.43;81.59
48015;BME280;33780;51.034;7.120;2023-02-18T13:26:13;101198.44;;;11.43;82.17
48015;BME280;33780;51.034;7.120;2023-02-18T13:31:16;101185.03;;;11.43;81.81
48015;BME280;33780;51.034;7.120;2023-02-18T13:33:58;101186.16;;;11.40;82.60
48015;BME280;33780;51.034;7.120;2023-02-18T13:36:39;101174.59;;;11.40;81.92
48015;BME280;33780;51.034;7.120;2023-02-18T13:39:13;101172.63;;;11.42;81.90
48015;BME280;33780;51.034;7.120;2023-02-18T13:41:47;101167.25;;;11.42;82.11
48015;BME280;33780;51.034;7.120;2023-02-18T13:46:54;101169.81;;;11.43;82.28
48015;BME280;33780;51.034;7.120;2023-02-18T13:49:34;101179.56;;;11.44;82.54
48015;BME280;33780;51.034;7.120;2023-02-18T13:52:02;101184.91;;;11.44;82.40
48015;BME280;33780;51.034;7.120;2023-02-18T13:54:31;101173.47;;;11.42;82.39
48015;BME280;33780;51.034;7.120;2023-02-18T13:57:01;101178.97;;;11.41;82.81
48015;BME280;33780;51.034;7.120;2023-02-18T13:59:37;101181.50;;;11.42;82.50
48015;BME280;33780;51.034;7.120;2023-02-18T14:02:33;101175.31;;;11.42;82.67
48015;BME280;33780;51.034;7.120;2023-02-18T14:22:51;101177.13;;;11.41;83.24
48015;BME280;33780;51.034;7.120;2023-02-18T14:27:49;101181.38;;;11.44;83.14
48015;BME280;33780;51.034;7.120;2023-02-18T14:30:24;101172.50;;;11.43;83.12
48015;BME280;33780;51.034;7.120;2023-02-18T14:32:56;101172.50;;;11.43;83.30
48015;BME280;33780;51.034;7.120;2023-02-18T14:38:13;101174.31;;;11.43;83.38
48015;BME280;33780;51.034;7.120;2023-02-18T14:41:06;101177.84;;;11.43;83.47
48015;BME280;33780;51.034;7.120;2023-02-18T14:43:46;101174.19;;;11.44;83.18
48015;BME280;33780;51.034;7.120;2023-02-18T14:49:19;101168.72;;;11.46;83.56
48015;BME280;33780;51.034;7.120;2023-02-18T14:51:50;101166.88;;;11.46;83.57